Time;durP1;ratioP1;P1;durP2;ratioP2;P2;SDS_P1;SDS_P2;PMS_P1;PMS_P2;Temp;Humidity;BMP_temperature;BMP_pressure;BME280_temperature;BME280_humidity;BME280_pressure;Samples;Min_cycle;Max_cycle;Signal;HPM_P1;HPM_P2
2021/11/17 02:27:57;;;;;;;9.15;5.65;;;;;;;;;;4972874;28;20050;-64
2021/11/17 02:30:36;;;;;;;5.95;4.68;;;;;;;;;;4957297;28;20132;-64
2021/11/17 02:33:08;;;;;;;10.38;6.45;;;;;;;;;;4972437;28;20051;-65
2021/11/17 02:35:37;;;;;;;9.30;5.67;;;;;;;;;;4973029;28;20058;-64
2021/11/17 02:38:37;;;;;;;10.10;5.95;;;;;;;;;;4972845;28;20047;-65
2021/11/17 02:41:28;;;;;;;7.97;5.47;;;;;;;;;;4972599;28;20050;-64
2021/11/17 02:44:12;;;;;;;8.27;5.65;;;;;;;;;;4972456;28;20051;-65
2021/11/17 02:47:05;;;;;;;8.90;4.95;;;;;;;;;;4972760;28;20465;-64
2021/11/17 02:49:32;;;;;;;;;;;;;;;;;;4995545;23;20101;-67
2021/11/17 02:52:17;;;;;;;10.15;5.95;;;;;;;;;;4972599;28;19953;-67
2021/11/17 02:55:08;;;;;;;11.38;6.50;;;;;;;;;;4972476;28;20066;-67
2021/11/17 02:57:44;;;;;;;10.48;6.35;;;;;;;;;;4972253;28;20497;-67
2021/11/17 03:00:46;;;;;;;10.52;6.35;;;;;;;;;;4971838;28;20050;-67
2021/11/17 03:03:37;;;;;;;8.82;5.43;;;;;;;;;;4941621;28;20122;-67
2021/11/17 03:06:16;;;;;;;11.85;6.78;;;;;;;;;;4973098;28;20054;-67
2021/11/17 03:08:55;;;;;;;8.95;6.32;;;;;;;;;;4972930;28;20050;-67
2021/11/17 03:11:53;;;;;;;10.07;6.43;;;;;;;;;;4972468;28;20054;-67
2021/11/17 03:14:36;;;;;;;9.52;5.82;;;;;;;;;;4972454;28;20481;-68
2021/11/17 03:17:41;;;;;;;12.88;6.20;;;;;;;;;;4976045;28;20098;-67
2021/11/17 03:20:23;;;;;;;11.65;6.35;;;;;;;;;;4946222;28;20047;-67
2021/11/17 03:23:18;;;;;;;11.40;6.75;;;;;;;;;;4975836;28;20081;-68
2021/11/17 03:25:58;;;;;;;12.30;7.05;;;;;;;;;;4976371;28;20494;-68
2021/11/17 03:28:58;;;;;;;11.20;6.63;;;;;;;;;;4975898;28;20058;-67
2021/11/17 03:31:47;;;;;;;11.95;6.80;;;;;;;;;;4975563;28;20049;-67
2021/11/17 03:34:42;;;;;;;10.80;7.33;;;;;;;;;;4964380;28;20043;-67
2021/11/17 03:37:23;;;;;;;12.52;6.85;;;;;;;;;;4956462;29;20047;-67
2021/11/17 03:40:07;;;;;;;11.05;7.22;;;;;;;;;;4956447;29;20059;-67
2021/11/17 03:43:03;;;;;;;12.15;7.10;;;;;;;;;;4956209;29;20055;-68
2021/11/17 03:45:54;;;;;;;12.20;7.13;;;;;;;;;;4887863;29;20473;-68
2021/11/17 03:48:42;;;;;;;13.23;7.45;;;;;;;;;;4956202;29;20453;-67
2021/11/17 03:51:34;;;;;;;11.35;7.18;;;;;;;;;;4956154;29;20051;-67
2021/11/17 03:54:40;;;;;;;11.50;7.00;;;;;;;;;;4926586;29;20051;-67
2021/11/17 03:57:15;;;;;;;12.23;7.28;;;;;;;;;;4939974;29;20099;-67
2021/11/17 04:00:06;;;;;;;13.23;7.40;;;;;;;;;;4956063;29;20091;-68
2021/11/17 04:02:52;;;;;;;11.07;6.60;;;;;;;;;;4956073;29;20114;-67
2021/11/17 04:05:31;;;;;;;13.73;7.93;;;;;;;;;;4975126;28;20501;-67
2021/11/17 04:08:20;;;;;;;14.07;8.00;;;;;;;;;;4975332;28;20050;-67
2021/11/17 04:11:20;;;;;;;10.82;6.68;;;;;;;;;;4975201;28;20055;-67
2021/11/17 04:14:19;;;;;;;14.70;6.93;;;;;;;;;;4968092;28;20102;-67
2021/11/17 04:17:27;;;;;;;12.20;7.03;;;;;;;;;;4913945;29;20087;-67
2021/11/17 04:20:21;;;;;;;10.20;6.90;;;;;;;;;;4877811;29;20053;-67
2021/11/17 04:23:29;;;;;;;12.85;7.45;;;;;;;;;;4877531;29;20061;-67
2021/11/17 04:26:01;;;;;;;13.25;7.68;;;;;;;;;;4953409;29;20312;-68
2021/11/17 04:28:49;;;;;;;12.87;7.93;;;;;;;;;;4955140;28;20047;-67
2021/11/17 04:31:34;;;;;;;11.77;7.13;;;;;;;;;;4955178;29;20333;-67
2021/11/17 04:34:32;;;;;;;15.00;8.10;;;;;;;;;;4955608;29;20047;-67
2021/11/17 04:37:26;;;;;;;16.98;8.15;;;;;;;;;;4955560;29;20051;-68
2021/11/17 04:40:22;;;;;;;16.23;8.27;;;;;;;;;;4955230;28;20047;-67
2021/11/17 04:43:09;;;;;;;14.65;8.15;;;;;;;;;;4955278;29;20055;-67
2021/11/17 04:45:44;;;;;;;14.88;8.45;;;;;;;;;;4937663;29;20051;-67
2021/11/17 04:48:36;;;;;;;14.90;8.50;;;;;;;;;;4955256;29;20047;-68
2021/11/17 04:51:41;;;;;;;13.93;8.15;;;;;;;;;;4954884;29;20047;-68
2021/11/17 04:54:20;;;;;;;14.82;7.10;;;;;;;;;;4949946;28;20128;-67
2021/11/17 04:56:58;;;;;;;14.02;7.63;;;;;;;;;;4974487;28;20097;-68
2021/11/17 04:59:31;;;;;;;14.57;7.65;;;;;;;;;;4974216;28;20062;-67
2021/11/17 05:02:12;;;;;;;14.40;7.78;;;;;;;;;;4974284;28;20054;-67
2021/11/17 05:04:55;;;;;;;13.93;7.55;;;;;;;;;;4974379;28;20077;-67
2021/11/17 05:07:51;;;;;;;15.10;7.45;;;;;;;;;;4974379;28;20490;-68
2021/11/17 05:10:26;;;;;;;14.88;7.75;;;;;;;;;;4905166;28;20153;-68
2021/11/17 05:13:28;;;;;;;14.48;7.80;;;;;;;;;;4973901;28;20464;-67
2021/11/17 05:16:01;;;;;;;14.32;8.48;;;;;;;;;;4932796;28;20109;-67
2021/11/17 05:18:41;;;;;;;14.70;8.40;;;;;;;;;;4973748;28;20051;-68
2021/11/17 05:21:16;;;;;;;15.05;7.63;;;;;;;;;;4973865;28;20055;-67
2021/11/17 05:24:14;;;;;;;18.40;8.77;;;;;;;;;;4973627;28;20047;-68
2021/11/17 05:27:09;;;;;;;16.67;8.90;;;;;;;;;;4973940;28;20054;-67
2021/11/17 05:29:53;;;;;;;14.48;8.15;;;;;;;;;;4973626;28;20050;-68
2021/11/17 05:32:30;;;;;;;15.75;8.18;;;;;;;;;;4973563;28;20047;-67
2021/11/17 05:35:18;;;;;;;15.63;8.30;;;;;;;;;;4973616;28;20043;-67
2021/11/17 05:38:10;;;;;;;14.30;8.40;;;;;;;;;;4973600;28;20105;-67
2021/11/17 05:40:52;;;;;;;17.93;7.63;;;;;;;;;;4962253;28;20130;-68
2021/11/17 05:43:28;;;;;;;16.95;7.68;;;;;;;;;;4958672;28;20105;-67
2021/11/17 05:46:19;;;;;;;13.80;7.88;;;;;;;;;;4958769;28;20107;-67
2021/11/17 05:49:13;;;;;;;15.75;7.88;;;;;;;;;;4963765;28;20046;-67
2021/11/17 05:51:52;;;;;;;14.00;8.18;;;;;;;;;;4973382;28;20101;-67
2021/11/17 05:54:44;;;;;;;17.98;9.20;;;;;;;;;;4973174;28;20050;-68
2021/11/17 05:57:35;;;;;;;16.05;7.35;;;;;;;;;;4973278;28;20050;-67
2021/11/17 06:00:34;;;;;;;15.70;8.10;;;;;;;;;;4972935;28;20058;-67
2021/11/17 06:03:20;;;;;;;14.52;8.30;;;;;;;;;;4973210;28;20046;-67
2021/11/17 06:05:46;;;;;;;16.13;8.32;;;;;;;;;;4956947;28;20048;-67
2021/11/17 06:08:15;;;;;;;15.38;7.93;;;;;;;;;;4953813;29;20061;-66
2021/11/17 06:10:43;;;;;;;17.30;8.18;;;;;;;;;;4953632;29;20122;-67
2021/11/17 06:13:11;;;;;;;14.15;8.15;;;;;;;;;;4921604;28;20735;-66
2021/11/17 06:15:38;;;;;;;16.13;8.20;;;;;;;;;;4946578;28;20110;-67
2021/11/17 06:18:05;;;;;;;23.20;9.48;;;;;;;;;;4921595;29;20051;-67
2021/11/17 06:20:31;;;;;;;15.35;8.77;;;;;;;;;;4936578;29;20055;-67
2021/11/17 06:23:03;;;;;;;19.80;9.70;;;;;;;;;;4920709;29;20466;-67
2021/11/17 06:25:30;;;;;;;19.63;9.30;;;;;;;;;;4947119;28;20046;-67
2021/11/17 06:28:03;;;;;;;17.35;9.63;;;;;;;;;;4955787;28;20099;-66
2021/11/17 06:30:35;;;;;;;;;;;;;;;;;;4987661;28;20051;-67
2021/11/17 06:33:03;;;;;;;15.70;8.55;;;;;;;;;;4974719;28;19926;-67
2021/11/17 06:35:30;;;;;;;13.38;7.95;;;;;;;;;;4966947;28;20047;-66
2021/11/17 06:37:56;;;;;;;15.95;8.05;;;;;;;;;;4973167;28;20055;-66
2021/11/17 06:40:23;;;;;;;19.25;8.48;;;;;;;;;;4962969;28;20569;-66
2021/11/17 06:42:55;;;;;;;17.88;8.57;;;;;;;;;;4936605;29;20114;-67
2021/11/17 06:45:23;;;;;;;19.75;9.13;;;;;;;;;;4953419;29;20494;-66
2021/11/17 06:47:50;;;;;;;17.13;8.48;;;;;;;;;;4953241;29;20115;-67
2021/11/17 06:50:18;;;;;;;16.35;8.13;;;;;;;;;;4962622;28;20106;-67
2021/11/17 06:52:45;;;;;;;20.40;9.90;;;;;;;;;;4976642;28;20101;-66
2021/11/17 06:55:12;;;;;;;17.52;10.63;;;;;;;;;;4968965;28;20134;-67
2021/11/17 06:57:39;;;;;;;19.30;10.30;;;;;;;;;;4964203;28;20050;-68
2021/11/17 07:00:08;;;;;;;15.55;9.23;;;;;;;;;;4969020;28;20043;-69
2021/11/17 07:02:35;;;;;;;20.77;9.30;;;;;;;;;;4966632;28;20051;-66
2021/11/17 07:05:03;;;;;;;17.25;8.98;;;;;;;;;;4962299;28;20069;-67
2021/11/17 07:07:29;;;;;;;14.60;9.00;;;;;;;;;;4963345;28;20062;-67
2021/11/17 07:09:56;;;;;;;16.50;8.30;;;;;;;;;;4960673;28;20051;-67
2021/11/17 07:12:23;;;;;;;17.05;8.10;;;;;;;;;;4959974;28;20059;-68
2021/11/17 07:14:49;;;;;;;14.70;7.65;;;;;;;;;;4944712;28;20082;-68
2021/11/17 07:17:16;;;;;;;15.75;7.72;;;;;;;;;;4963077;28;20130;-68
2021/11/17 07:19:43;;;;;;;16.23;7.80;;;;;;;;;;4965483;28;20101;-67
2021/11/17 07:22:10;;;;;;;19.77;8.52;;;;;;;;;;4960047;28;20054;-67
2021/11/17 07:24:38;;;;;;;15.77;7.40;;;;;;;;;;4962153;28;20151;-68
2021/11/17 07:27:06;;;;;;;15.70;8.50;;;;;;;;;;4959519;28;20106;-68
2021/11/17 07:29:32;;;;;;;12.43;7.05;;;;;;;;;;4966113;28;20105;-67
2021/11/17 07:31:59;;;;;;;15.32;7.22;;;;;;;;;;4960336;28;20101;-68
2021/11/17 07:34:26;;;;;;;15.45;7.38;;;;;;;;;;4960748;28;20055;-68
2021/11/17 07:36:52;;;;;;;15.73;8.70;;;;;;;;;;4961698;28;20055;-67
2021/11/17 07:39:19;;;;;;;16.92;9.20;;;;;;;;;;4963651;28;20110;-68
2021/11/17 07:41:48;;;;;;;19.10;11.63;;;;;;;;;;4961526;28;20134;-68
2021/11/17 07:44:16;;;;;;;17.33;9.63;;;;;;;;;;4959615;28;20150;-68
2021/11/17 07:46:47;;;;;;;16.58;9.00;;;;;;;;;;4963935;28;20043;-68
2021/11/17 07:49:14;;;;;;;14.23;7.28;;;;;;;;;;4958447;28;20621;-68
2021/11/17 07:51:41;;;;;;;16.67;7.15;;;;;;;;;;4967146;28;20050;-68
2021/11/17 07:54:09;;;;;;;12.70;7.10;;;;;;;;;;4959951;28;20064;-67
2021/11/17 07:56:37;;;;;;;14.52;7.90;;;;;;;;;;4963628;28;20043;-67
2021/11/17 07:59:05;;;;;;;16.38;7.82;;;;;;;;;;4953717;28;20803;-67
2021/11/17 08:01:31;;;;;;;15.32;9.90;;;;;;;;;;4944303;28;20055;-67
2021/11/17 08:03:58;;;;;;;17.98;8.82;;;;;;;;;;4955168;28;20455;-67
2021/11/17 08:06:26;;;;;;;11.25;7.03;;;;;;;;;;4954349;28;20051;-67
2021/11/17 08:08:53;;;;;;;11.35;5.60;;;;;;;;;;4953189;28;20051;-67
2021/11/17 08:11:20;;;;;;;19.05;5.75;;;;;;;;;;4955778;28;20098;-67
2021/11/17 08:13:46;;;;;;;9.80;5.00;;;;;;;;;;4955867;28;20810;-67
2021/11/17 08:16:15;;;;;;;10.93;5.68;;;;;;;;;;4970492;28;20051;-68
2021/11/17 08:18:42;;;;;;;8.90;5.05;;;;;;;;;;4972038;28;20051;-67
2021/11/17 08:21:11;;;;;;;8.45;4.93;;;;;;;;;;4968963;28;20106;-67
2021/11/17 08:23:38;;;;;;;13.60;5.00;;;;;;;;;;4974972;28;20465;-69
2021/11/17 08:26:05;;;;;;;8.15;4.63;;;;;;;;;;4978151;28;20086;-69
2021/11/17 08:28:32;;;;;;;8.63;4.72;;;;;;;;;;4975594;28;20490;-69
2021/11/17 08:30:59;;;;;;;7.88;4.63;;;;;;;;;;4973683;28;20054;-68
2021/11/17 08:33:25;;;;;;;7.82;3.90;;;;;;;;;;4974267;28;20051;-69
2021/11/17 08:35:57;;;;;;;7.03;3.67;;;;;;;;;;4977152;28;20042;-70
2021/11/17 08:38:24;;;;;;;8.00;3.78;;;;;;;;;;4976452;28;20058;-71
2021/11/17 08:40:54;;;;;;;6.75;4.03;;;;;;;;;;4954506;28;20079;-71
2021/11/17 08:43:21;;;;;;;11.25;3.80;;;;;;;;;;4977474;28;20067;-72
2021/11/17 08:45:48;;;;;;;7.03;3.72;;;;;;;;;;4943660;28;20039;-72
2021/11/17 08:48:16;;;;;;;6.38;3.83;;;;;;;;;;4960567;28;20058;-71
2021/11/17 08:50:43;;;;;;;8.48;4.80;;;;;;;;;;4958186;28;20549;-72
2021/11/17 08:53:11;;;;;;;9.13;4.65;;;;;;;;;;4962218;28;20106;-72
2021/11/17 08:55:41;;;;;;;6.20;4.13;;;;;;;;;;4962601;28;20046;-74
2021/11/17 08:58:13;;;;;;;6.00;4.05;;;;;;;;;;4945202;28;20078;-72
2021/11/17 09:00:43;;;;;;;7.60;4.55;;;;;;;;;;4946269;28;20047;-73
2021/11/17 09:03:11;;;;;;;6.75;4.45;;;;;;;;;;4959403;28;20055;-69
2021/11/17 09:05:49;;;;;;;8.60;4.50;;;;;;;;;;4944117;28;20083;-68
2021/11/17 09:08:21;;;;;;;7.80;4.30;;;;;;;;;;4937155;28;20094;-68
2021/11/17 09:10:58;;;;;;;6.97;4.47;;;;;;;;;;4942036;28;20686;-69
2021/11/17 09:13:31;;;;;;;8.38;4.63;;;;;;;;;;4962650;28;20061;-67
2021/11/17 09:16:00;;;;;;;9.80;4.57;;;;;;;;;;4969371;28;20031;-72
2021/11/17 09:18:34;;;;;;;7.00;4.00;;;;;;;;;;4947961;28;20098;-71
2021/11/17 09:21:03;;;;;;;7.55;4.20;;;;;;;;;;4959351;28;20051;-71
2021/11/17 09:23:31;;;;;;;6.60;4.38;;;;;;;;;;4944666;28;20050;-73
2021/11/17 09:25:59;;;;;;;7.18;3.78;;;;;;;;;;4959360;28;20105;-74
2021/11/17 09:28:27;;;;;;;8.00;4.25;;;;;;;;;;4960760;28;20057;-73
2021/11/17 09:30:54;;;;;;;6.85;3.42;;;;;;;;;;5010501;23;20043;-68
2021/11/17 09:33:23;;;;;;;6.43;3.30;;;;;;;;;;4953687;29;20047;-70
2021/11/17 09:35:50;;;;;;;5.10;3.47;;;;;;;;;;4953114;29;20047;-67
2021/11/17 09:38:17;;;;;;;7.72;3.65;;;;;;;;;;4952897;29;20122;-67
2021/11/17 09:40:49;;;;;;;8.00;4.47;;;;;;;;;;4952726;28;20051;-66
2021/11/17 09:43:18;;;;;;;3.63;2.70;;;;;;;;;;4948010;29;20051;-67
2021/11/17 09:45:47;;;;;;;6.25;3.25;;;;;;;;;;4952223;29;20039;-68
2021/11/17 09:48:17;;;;;;;5.45;3.40;;;;;;;;;;4933478;29;20138;-68
2021/11/17 09:50:51;;;;;;;5.13;3.47;;;;;;;;;;4935854;29;20050;-68
2021/11/17 09:53:45;;;;;;;4.78;3.25;;;;;;;;;;4952913;29;20110;-68
2021/11/17 09:56:45;;;;;;;4.07;2.80;;;;;;;;;;4953032;29;20047;-68
2021/11/17 09:59:44;;;;;;;4.47;3.20;;;;;;;;;;4952642;28;20102;-68
2021/11/17 10:02:34;;;;;;;4.75;2.97;;;;;;;;;;4948242;29;20043;-68
2021/11/17 10:05:13;;;;;;;5.43;2.72;;;;;;;;;;4918581;29;20047;-68
2021/11/17 10:08:32;;;;;;;4.97;3.20;;;;;;;;;;4953035;29;20051;-68
2021/11/17 10:14:04;;;;;;;4.82;2.63;;;;;;;;;;4921899;29;20110;-68
2021/11/17 10:16:31;;;;;;;3.83;2.20;;;;;;;;;;4935420;29;20043;-68
2021/11/17 10:19:25;;;;;;;3.55;2.63;;;;;;;;;;4952785;28;20062;-68
2021/11/17 10:21:59;;;;;;;2.92;2.03;;;;;;;;;;4952353;29;20052;-68
2021/11/17 10:24:52;;;;;;;3.88;2.60;;;;;;;;;;4951849;29;20055;-69
2021/11/17 10:27:27;;;;;;;3.58;1.80;;;;;;;;;;4951988;29;20439;-68
2021/11/17 10:29:58;;;;;;;3.22;2.28;;;;;;;;;;4952495;28;20079;-68
2021/11/17 10:32:43;;;;;;;2.80;2.00;;;;;;;;;;4935165;29;20106;-68
2021/11/17 10:35:14;;;;;;;2.33;1.70;;;;;;;;;;4950784;29;20051;-68
2021/11/17 10:37:59;;;;;;;5.90;2.67;;;;;;;;;;4952696;29;20482;-68
2021/11/17 10:40:27;;;;;;;7.30;2.90;;;;;;;;;;4950276;28;20051;-68
2021/11/17 10:43:06;;;;;;;3.90;2.15;;;;;;;;;;4950787;29;20094;-68
2021/11/17 10:45:45;;;;;;;2.40;1.60;;;;;;;;;;4952455;29;20532;-68
2021/11/17 10:48:31;;;;;;;2.53;1.27;;;;;;;;;;4950664;29;20098;-68
2021/11/17 10:51:32;;;;;;;4.88;2.50;;;;;;;;;;4950075;28;20062;-68
2021/11/17 10:54:10;;;;;;;2.50;1.77;;;;;;;;;;4950336;29;20106;-68
2021/11/17 10:56:39;;;;;;;2.83;1.23;;;;;;;;;;4952055;29;20518;-68
2021/11/17 10:59:06;;;;;;;4.10;1.38;;;;;;;;;;4952594;28;20047;-68
2021/11/17 11:01:41;;;;;;;1.85;1.25;;;;;;;;;;4948800;29;20086;-68
2021/11/17 11:04:16;;;;;;;1.85;1.10;;;;;;;;;;4952191;29;20446;-68
2021/11/17 11:06:50;;;;;;;2.40;1.40;;;;;;;;;;4920701;29;20074;-67
2021/11/17 11:09:20;;;;;;;3.63;1.20;;;;;;;;;;4948732;28;20047;-68
2021/11/17 11:11:50;;;;;;;1.00;0.93;;;;;;;;;;4934439;29;20114;-68
2021/11/17 11:14:20;;;;;;;3.95;2.10;;;;;;;;;;4952559;28;20062;-68
2021/11/17 11:16:53;;;;;;;3.95;1.95;;;;;;;;;;4935478;29;20058;-70
2021/11/17 11:19:20;;;;;;;2.55;1.48;;;;;;;;;;4945469;28;20462;-69
2021/11/17 11:21:46;;;;;;;4.10;1.90;;;;;;;;;;4952734;28;20051;-71
2021/11/17 11:24:26;;;;;;;2.20;1.10;;;;;;;;;;4950680;29;20437;-68
2021/11/17 11:26:59;;;;;;;1.73;0.95;;;;;;;;;;4950071;29;20490;-68
2021/11/17 11:29:36;;;;;;;1.58;1.25;;;;;;;;;;4950824;28;20176;-66
2021/11/17 11:32:30;;;;;;;1.70;1.05;;;;;;;;;;4934709;29;20055;-66
2021/11/17 11:35:01;;;;;;;1.35;1.15;;;;;;;;;;4945632;29;20051;-66
2021/11/17 11:37:27;;;;;;;2.75;1.23;;;;;;;;;;4954688;28;20051;-71
2021/11/17 11:39:54;;;;;;;1.60;1.23;;;;;;;;;;4955424;28;20058;-70
2021/11/17 11:42:32;;;;;;;3.33;1.60;;;;;;;;;;4954760;29;20051;-70
2021/11/17 11:45:09;;;;;;;3.90;1.75;;;;;;;;;;4957113;28;20482;-71
2021/11/17 11:47:42;;;;;;;1.75;1.30;;;;;;;;;;4954831;29;20106;-72
2021/11/17 11:50:37;;;;;;;3.22;2.05;;;;;;;;;;4955238;28;20400;-70
2021/11/17 11:53:17;;;;;;;2.70;1.80;;;;;;;;;;4953179;28;20082;-66
2021/11/17 11:55:49;;;;;;;2.40;1.80;;;;;;;;;;4952055;29;20047;-69
2021/11/17 11:58:23;;;;;;;2.78;1.70;;;;;;;;;;4952505;29;20070;-73
2021/11/17 12:01:23;;;;;;;7.10;1.40;;;;;;;;;;4954803;28;20081;-72
2021/11/17 12:04:14;;;;;;;5.07;1.42;;;;;;;;;;4954762;29;20073;-72
2021/11/17 12:06:50;;;;;;;2.22;1.60;;;;;;;;;;4939773;29;20043;-70
2021/11/17 12:09:19;;;;;;;2.45;1.20;;;;;;;;;;4951730;28;20136;-70
2021/11/17 12:11:57;;;;;;;1.60;1.20;;;;;;;;;;4954185;29;20062;-72
2021/11/17 12:14:34;;;;;;;1.33;1.20;;;;;;;;;;4954684;29;20414;-73
2021/11/17 12:17:02;;;;;;;3.03;1.00;;;;;;;;;;4951658;29;20053;-70
2021/11/17 12:19:31;;;;;;;1.13;0.80;;;;;;;;;;4953634;28;20043;-69
2021/11/17 12:21:59;;;;;;;1.73;1.08;;;;;;;;;;4954512;29;20142;-71
2021/11/17 12:24:32;;;;;;;2.35;1.08;;;;;;;;;;4954998;29;20051;-72
2021/11/17 12:27:11;;;;;;;;;;;;;;;;;;4937918;29;20059;-68
2021/11/17 12:29:57;;;;;;;3.45;1.60;;;;;;;;;;4951533;28;19926;-70
2021/11/17 12:32:50;;;;;;;5.35;1.45;;;;;;;;;;4954042;29;20113;-73
2021/11/17 12:35:24;;;;;;;5.68;1.20;;;;;;;;;;4954105;29;20110;-72
2021/11/17 12:37:55;;;;;;;1.83;1.40;;;;;;;;;;4953996;29;20102;-69
2021/11/17 12:40:54;;;;;;;3.92;1.10;;;;;;;;;;4954197;28;20051;-69
2021/11/17 12:43:52;;;;;;;3.22;1.50;;;;;;;;;;4935877;29;20058;-68
2021/11/17 12:46:57;;;;;;;3.42;1.15;;;;;;;;;;4954452;29;20079;-69
2021/11/17 12:49:35;;;;;;;2.13;1.30;;;;;;;;;;4953694;28;20055;-65
2021/11/17 12:52:11;;;;;;;2.00;1.20;;;;;;;;;;4936811;29;20055;-68
2021/11/17 12:54:48;;;;;;;3.10;1.65;;;;;;;;;;4922381;29;20063;-69
2021/11/17 12:57:18;;;;;;;3.92;1.73;;;;;;;;;;4937001;29;20494;-68
2021/11/17 12:59:49;;;;;;;2.92;1.40;;;;;;;;;;4921274;29;20098;-72
2021/11/17 13:02:22;;;;;;;2.15;1.17;;;;;;;;;;4953915;29;20055;-70
2021/11/17 13:04:54;;;;;;;2.45;1.38;;;;;;;;;;4954094;29;20510;-70
2021/11/17 13:07:41;;;;;;;2.95;1.00;;;;;;;;;;4950637;29;20109;-69
2021/11/17 13:10:09;;;;;;;2.65;1.40;;;;;;;;;;4953713;28;20532;-72
2021/11/17 13:12:37;;;;;;;4.63;2.20;;;;;;;;;;4936669;29;20047;-68
2021/11/17 13:15:03;;;;;;;2.15;1.58;;;;;;;;;;4953525;29;20051;-71
2021/11/17 13:17:33;;;;;;;1.88;1.25;;;;;;;;;;4952508;29;20509;-70
2021/11/17 13:20:16;;;;;;;5.05;1.98;;;;;;;;;;4953526;28;20061;-72
2021/11/17 13:23:17;;;;;;;3.47;1.50;;;;;;;;;;4953257;29;20051;-69
2021/11/17 13:25:49;;;;;;;2.10;1.58;;;;;;;;;;4950956;29;20046;-70
2021/11/17 13:28:45;;;;;;;3.05;1.40;;;;;;;;;;4936101;29;20049;-71
2021/11/17 13:31:44;;;;;;;2.75;1.60;;;;;;;;;;4951529;29;20051;-71
2021/11/17 13:34:26;;;;;;;3.47;2.00;;;;;;;;;;4945686;29;20054;-71
2021/11/17 13:36:55;;;;;;;2.47;1.38;;;;;;;;;;4952815;29;20047;-70
2021/11/17 13:39:23;;;;;;;2.88;1.80;;;;;;;;;;4953141;28;20059;-73
2021/11/17 13:41:54;;;;;;;1.85;1.25;;;;;;;;;;4951373;29;20106;-73
2021/11/17 13:44:24;;;;;;;2.13;1.50;;;;;;;;;;4953021;29;20135;-68
2021/11/17 13:46:55;;;;;;;3.90;2.00;;;;;;;;;;4949687;29;20061;-68
2021/11/17 13:49:22;;;;;;;6.13;3.63;;;;;;;;;;4950874;28;20149;-66
2021/11/17 13:51:49;;;;;;;6.25;3.40;;;;;;;;;;4950862;28;20055;-67
2021/11/17 13:54:16;;;;;;;3.53;1.50;;;;;;;;;;4951328;29;20106;-67
2021/11/17 13:56:42;;;;;;;4.97;2.25;;;;;;;;;;4951206;29;20051;-67
2021/11/17 13:59:09;;;;;;;3.05;1.80;;;;;;;;;;4949727;28;20051;-70
2021/11/17 14:01:36;;;;;;;5.75;2.35;;;;;;;;;;4950872;29;20139;-70
2021/11/17 14:04:03;;;;;;;6.10;2.75;;;;;;;;;;4951406;29;20055;-68
2021/11/17 14:06:30;;;;;;;5.10;2.38;;;;;;;;;;4929951;29;20047;-67
2021/11/17 14:08:56;;;;;;;4.90;2.20;;;;;;;;;;4951149;28;20055;-67
2021/11/17 14:11:23;;;;;;;5.28;2.90;;;;;;;;;;4950564;29;21322;-67
2021/11/17 14:13:50;;;;;;;3.63;2.10;;;;;;;;;;4951289;29;20433;-66
2021/11/17 14:16:17;;;;;;;3.08;1.95;;;;;;;;;;4950580;29;20047;-66
2021/11/17 14:18:44;;;;;;;4.47;3.00;;;;;;;;;;4951243;28;20055;-67
2021/11/17 14:21:14;;;;;;;4.43;2.70;;;;;;;;;;4950227;29;20051;-67
2021/11/17 14:23:42;;;;;;;3.60;2.70;;;;;;;;;;4947798;29;20549;-66
2021/11/17 14:26:11;;;;;;;3.55;2.38;;;;;;;;;;4950386;29;20055;-67
2021/11/17 14:28:40;;;;;;;6.05;2.38;;;;;;;;;;4950779;28;20051;-69
2021/11/17 14:31:33;;;;;;;2.75;1.98;;;;;;;;;;4950741;29;20062;-69
2021/11/17 14:34:01;;;;;;;4.72;2.45;;;;;;;;;;4935735;29;20051;-69
2021/11/17 14:37:02;;;;;;;3.72;2.28;;;;;;;;;;4949125;29;20059;-68
2021/11/17 14:39:29;;;;;;;3.95;2.30;;;;;;;;;;4950557;28;20057;-66
2021/11/17 14:41:57;;;;;;;3.35;1.70;;;;;;;;;;4950887;29;20537;-66
2021/11/17 14:44:24;;;;;;;4.70;2.95;;;;;;;;;;4950313;29;20062;-66
2021/11/17 14:46:51;;;;;;;7.00;2.90;;;;;;;;;;4950777;29;20051;-66
2021/11/17 14:49:19;;;;;;;4.38;3.60;;;;;;;;;;4933264;29;20055;-67
2021/11/17 14:51:46;;;;;;;6.30;4.72;;;;;;;;;;4949829;28;20507;-67
2021/11/17 14:54:13;;;;;;;4.55;2.90;;;;;;;;;;4949576;29;20146;-66
2021/11/17 14:56:41;;;;;;;3.58;2.60;;;;;;;;;;4950413;29;20054;-69
2021/11/17 14:59:08;;;;;;;3.90;2.15;;;;;;;;;;4950164;28;20047;-67
2021/11/17 15:01:37;;;;;;;3.60;1.98;;;;;;;;;;4950498;29;20676;-68
2021/11/17 15:04:05;;;;;;;4.93;2.60;;;;;;;;;;4948687;29;20694;-66
2021/11/17 15:06:35;;;;;;;3.38;2.25;;;;;;;;;;4950067;29;20052;-67
2021/11/17 15:09:03;;;;;;;3.63;2.17;;;;;;;;;;4950894;28;20051;-67
2021/11/17 15:11:30;;;;;;;3.80;2.22;;;;;;;;;;4951727;28;20044;-65
2021/11/17 15:13:57;;;;;;;3.28;2.25;;;;;;;;;;4926967;29;20102;-67
2021/11/17 15:16:24;;;;;;;4.00;2.40;;;;;;;;;;4936051;29;20130;-68
2021/11/17 15:18:52;;;;;;;3.63;2.20;;;;;;;;;;4954052;28;20153;-68
2021/11/17 15:21:20;;;;;;;5.05;2.67;;;;;;;;;;4953663;29;20082;-67
2021/11/17 15:23:47;;;;;;;5.93;3.58;;;;;;;;;;4954366;29;20039;-67
2021/11/17 15:26:14;;;;;;;4.20;3.20;;;;;;;;;;4937022;29;20047;-67
2021/11/17 15:28:46;;;;;;;3.33;2.03;;;;;;;;;;4953537;28;20134;-66
2021/11/17 15:31:17;;;;;;;3.63;2.10;;;;;;;;;;4953508;29;20054;-66
2021/11/17 15:33:44;;;;;;;3.63;2.20;;;;;;;;;;4953816;29;20486;-68
2021/11/17 15:36:13;;;;;;;2.95;2.20;;;;;;;;;;4953489;29;20094;-67
2021/11/17 15:38:41;;;;;;;2.65;2.00;;;;;;;;;;4936490;28;20055;-67
2021/11/17 15:41:09;;;;;;;3.40;2.20;;;;;;;;;;4953527;29;20055;-68
2021/11/17 15:43:36;;;;;;;3.85;3.13;;;;;;;;;;4953353;29;20047;-67
2021/11/17 15:46:03;;;;;;;5.20;3.38;;;;;;;;;;4953557;29;20047;-67
2021/11/17 15:48:35;;;;;;;4.75;2.85;;;;;;;;;;4951892;28;20046;-66
2021/11/17 15:51:07;;;;;;;5.93;3.67;;;;;;;;;;4953307;28;20130;-65
2021/11/17 15:53:34;;;;;;;7.22;3.97;;;;;;;;;;4954168;29;20118;-64
2021/11/17 15:56:01;;;;;;;5.15;3.40;;;;;;;;;;4952866;29;20113;-65
2021/11/17 15:58:27;;;;;;;6.10;4.57;;;;;;;;;;4950006;28;20055;-65
2021/11/17 16:00:54;;;;;;;8.23;4.10;;;;;;;;;;4952976;29;20066;-65
2021/11/17 16:03:21;;;;;;;4.63;3.30;;;;;;;;;;4953278;29;20169;-68
2021/11/17 16:05:48;;;;;;;7.32;4.03;;;;;;;;;;4952245;29;20069;-66
2021/11/17 16:08:16;;;;;;;5.68;4.00;;;;;;;;;;4952760;29;20055;-66
2021/11/17 16:10:43;;;;;;;6.30;3.70;;;;;;;;;;4952881;28;20051;-66
2021/11/17 16:13:10;;;;;;;6.15;3.58;;;;;;;;;;4952749;29;20055;-67
2021/11/17 16:15:39;;;;;;;7.00;4.32;;;;;;;;;;4951152;29;20081;-66
2021/11/17 16:18:06;;;;;;;19.38;9.10;;;;;;;;;;4952617;29;20166;-68
2021/11/17 16:20:44;;;;;;;5.72;3.15;;;;;;;;;;4952963;28;20114;-69
2021/11/17 16:25:46;;;;;;;8.15;4.78;;;;;;;;;;4951265;29;20094;-66
2021/11/17 16:28:24;;;;;;;7.00;3.88;;;;;;;;;;4950749;29;20055;-67
2021/11/17 16:30:52;;;;;;;7.43;4.43;;;;;;;;;;4935391;29;20711;-68
2021/11/17 16:33:19;;;;;;;5.10;4.03;;;;;;;;;;4948250;29;20058;-66
2021/11/17 16:35:47;;;;;;;6.70;4.45;;;;;;;;;;4952450;29;20106;-66
2021/11/17 16:38:14;;;;;;;8.57;4.60;;;;;;;;;;4935721;29;20072;-66
2021/11/17 16:40:42;;;;;;;6.57;4.05;;;;;;;;;;4952642;28;20113;-67
2021/11/17 16:43:11;;;;;;;7.13;3.58;;;;;;;;;;4935392;29;20059;-67
2021/11/17 16:45:38;;;;;;;4.75;3.30;;;;;;;;;;4950876;29;20070;-68
2021/11/17 16:48:05;;;;;;;5.10;3.72;;;;;;;;;;4951797;29;20047;-68
2021/11/17 16:50:33;;;;;;;5.38;3.70;;;;;;;;;;4952560;28;20587;-67
2021/11/17 16:52:59;;;;;;;5.68;4.07;;;;;;;;;;4953450;28;20121;-67
2021/11/17 16:55:40;;;;;;;6.00;4.10;;;;;;;;;;4949773;29;20505;-67
2021/11/17 16:58:07;;;;;;;8.60;5.78;;;;;;;;;;4951467;29;20047;-67
2021/11/17 17:00:37;;;;;;;15.15;6.90;;;;;;;;;;4952177;28;20098;-67
2021/11/17 17:03:06;;;;;;;15.43;7.18;;;;;;;;;;4950718;29;20055;-67
2021/11/17 17:05:33;;;;;;;17.50;8.52;;;;;;;;;;4952350;29;20055;-69
2021/11/17 17:07:59;;;;;;;14.10;7.05;;;;;;;;;;4950866;29;20047;-67
2021/11/17 17:10:27;;;;;;;14.45;7.38;;;;;;;;;;4951461;28;20051;-67
2021/11/17 17:12:54;;;;;;;14.00;6.68;;;;;;;;;;4952068;29;20066;-66
2021/11/17 17:15:24;;;;;;;6.03;4.07;;;;;;;;;;4951297;29;20047;-71
2021/11/17 17:17:52;;;;;;;12.07;7.18;;;;;;;;;;4950555;29;20051;-70
2021/11/17 17:20:22;;;;;;;11.13;6.82;;;;;;;;;;4952034;28;20051;-65
2021/11/17 17:22:50;;;;;;;10.23;6.32;;;;;;;;;;4949358;29;20051;-67
2021/11/17 17:25:18;;;;;;;11.95;6.20;;;;;;;;;;4951618;29;20502;-69
2021/11/17 17:27:45;;;;;;;11.23;5.50;;;;;;;;;;4951613;29;20050;-69
2021/11/17 17:30:19;;;;;;;7.32;4.80;;;;;;;;;;4951242;28;20059;-69
2021/11/17 17:32:47;;;;;;;8.23;5.60;;;;;;;;;;4950547;29;20146;-69
2021/11/17 17:35:15;;;;;;;7.18;4.28;;;;;;;;;;4950480;28;20098;-66
2021/11/17 17:37:43;;;;;;;7.55;4.57;;;;;;;;;;4950424;29;20459;-66
2021/11/17 17:40:11;;;;;;;5.85;4.32;;;;;;;;;;4946966;28;20553;-69
2021/11/17 17:42:39;;;;;;;7.75;4.22;;;;;;;;;;4945366;29;20055;-70
2021/11/17 17:45:08;;;;;;;6.53;4.88;;;;;;;;;;4945344;29;20049;-70
2021/11/17 17:47:35;;;;;;;4.93;4.18;;;;;;;;;;4946695;29;20972;-68
2021/11/17 17:50:06;;;;;;;12.77;4.57;;;;;;;;;;4946929;28;20611;-68
2021/11/17 17:52:34;;;;;;;6.32;4.35;;;;;;;;;;4948207;28;20059;-67
2021/11/17 17:55:02;;;;;;;6.97;4.30;;;;;;;;;;4930638;29;20051;-70
2021/11/17 17:57:30;;;;;;;6.03;4.00;;;;;;;;;;4943438;29;20525;-68